sensor_id;sensor_type;location;lat;lon;timestamp;temperature;humidity
55329;DHT22;41205;44.264;19.884;2023-06-19T00:01:58;435.70;2355.20
55329;DHT22;41205;44.264;19.884;2023-06-19T00:04:24;435.70;2355.20
55329;DHT22;41205;44.264;19.884;2023-06-19T00:06:50;435.70;2355.20
55329;DHT22;41205;44.264;19.884;2023-06-19T00:09:15;435.60;2355.20
55329;DHT22;41205;44.264;19.884;2023-06-19T00:11:42;435.50;2355.20
55329;DHT22;41205;44.264;19.884;2023-06-19T00:14:08;435.50;2355.20
55329;DHT22;41205;44.264;19.884;2023-06-19T00:16:34;435.60;2355.20
55329;DHT22;41205;44.264;19.884;2023-06-19T00:18:59;435.60;2355.20
55329;DHT22;41205;44.264;19.884;2023-06-19T00:21:25;435.50;2355.20
55329;DHT22;41205;44.264;19.884;2023-06-19T00:23:52;435.40;2355.20
55329;DHT22;41205;44.264;19.884;2023-06-19T00:26:18;435.40;2355.20
55329;DHT22;41205;44.264;19.884;2023-06-19T00:28:51;435.40;2355.20
55329;DHT22;41205;44.264;19.884;2023-06-19T00:31:18;435.30;2355.20
55329;DHT22;41205;44.264;19.884;2023-06-19T01:47:32;410.30;2355.20
55329;DHT22;41205;44.264;19.884;2023-06-19T01:49:58;410.30;2355.20
55329;DHT22;41205;44.264;19.884;2023-06-19T01:52:24;410.20;2355.20
55329;DHT22;41205;44.264;19.884;2023-06-19T04:28:33;487.10;2380.80
55329;DHT22;41205;44.264;19.884;2023-06-19T04:33:28;589.50;2355.20
55329;DHT22;41205;44.264;19.884;2023-06-19T04:35:55;640.70;2048.00
55329;DHT22;41205;44.264;19.884;2023-06-19T04:38:20;692.10;1843.20
55329;DHT22;41205;44.264;19.884;2023-06-19T04:40:53;742.80;1740.80
55329;DHT22;41205;44.264;19.884;2023-06-19T04:43:19;768.60;1638.40
55329;DHT22;41205;44.264;19.884;2023-06-19T04:45:45;794.50;1561.60
55329;DHT22;41205;44.264;19.884;2023-06-19T04:48:10;819.90;1484.80
55329;DHT22;41205;44.264;19.884;2023-06-19T04:50:37;845.20;1459.20
55329;DHT22;41205;44.264;19.884;2023-06-19T04:56:24;870.80;1382.40
55329;DHT22;41205;44.264;19.884;2023-06-19T04:58:50;871.00;1356.80
55329;DHT22;41205;44.264;19.884;2023-06-19T05:01:17;871.30;1356.80
55329;DHT22;41205;44.264;19.884;2023-06-19T05:03:45;896.50;1305.60
55329;DHT22;41205;44.264;19.884;2023-06-19T05:06:14;896.80;1280.00
55329;DHT22;41205;44.264;19.884;2023-06-19T05:16:53;948.10;1203.20
55329;DHT22;41205;44.264;19.884;2023-06-19T05:19:19;973.20;1203.20
55329;DHT22;41205;44.264;19.884;2023-06-19T05:24:11;973.50;1203.20
55329;DHT22;41205;44.264;19.884;2023-06-19T05:26:36;998.60;1203.20
55329;DHT22;41205;44.264;19.884;2023-06-19T05:29:02;998.90;1177.60
55329;DHT22;41205;44.264;19.884;2023-06-19T05:31:28;999.20;1152.00
55329;DHT22;41205;44.264;19.884;2023-06-19T05:33:54;1024.20;1152.00
55329;DHT22;41205;44.264;19.884;2023-06-19T05:36:19;1024.70;1126.40
55329;DHT22;41205;44.264;19.884;2023-06-19T05:42:07;1024.90;1126.40
55329;DHT22;41205;44.264;19.884;2023-06-19T05:44:33;1050.50;1100.80
55329;DHT22;41205;44.264;19.884;2023-06-19T05:46:59;1075.40;1100.80
55329;DHT22;41205;44.264;19.884;2023-06-19T05:49:24;1075.70;1075.20
55329;DHT22;41205;44.264;19.884;2023-06-19T05:57:38;1101.70;1049.60
55329;DHT22;41205;44.264;19.884;2023-06-19T06:00:05;1127.10;1049.60
55329;DHT22;41205;44.264;19.884;2023-06-19T06:02:31;1152.00;1049.60
55329;DHT22;41205;44.264;19.884;2023-06-19T06:04:57;1152.20;1024.00
55329;DHT22;41205;44.264;19.884;2023-06-19T06:07:22;1152.50;1024.00
55329;DHT22;41205;44.264;19.884;2023-06-19T06:09:48;1152.20;1024.00
55329;DHT22;41205;44.264;19.884;2023-06-19T06:12:14;1177.60;1024.00
55329;DHT22;41205;44.264;19.884;2023-06-19T06:14:41;1178.20;998.40
55329;DHT22;41205;44.264;19.884;2023-06-19T06:17:07;1178.50;998.40
55329;DHT22;41205;44.264;19.884;2023-06-19T06:19:32;1203.30;998.40
55329;DHT22;41205;44.264;19.884;2023-06-19T06:21:58;1203.60;998.40
55329;DHT22;41205;44.264;19.884;2023-06-19T06:27:45;1203.80;998.40
55329;DHT22;41205;44.264;19.884;2023-06-19T06:30:12;1228.90;998.40
55329;DHT22;41205;44.264;19.884;2023-06-19T06:32:38;1229.00;998.40
55329;DHT22;41205;44.264;19.884;2023-06-19T06:35:04;1229.50;972.80
55329;DHT22;41205;44.264;19.884;2023-06-19T06:37:30;1229.50;972.80
55329;DHT22;41205;44.264;19.884;2023-06-19T06:39:55;1254.50;972.80
55329;DHT22;41205;44.264;19.884;2023-06-19T06:42:21;1254.80;972.80
55329;DHT22;41205;44.264;19.884;2023-06-19T06:44:47;1254.90;972.80
55329;DHT22;41205;44.264;19.884;2023-06-19T06:47:13;1254.90;972.80
55329;DHT22;41205;44.264;19.884;2023-06-19T06:49:38;1255.30;972.80
55329;DHT22;41205;44.264;19.884;2023-06-19T06:52:05;1280.40;947.20
55329;DHT22;41205;44.264;19.884;2023-06-19T06:57:52;1280.70;921.60
55329;DHT22;41205;44.264;19.884;2023-06-19T07:00:18;1305.70;921.60
55329;DHT22;41205;44.264;19.884;2023-06-19T07:02:44;1305.70;921.60
55329;DHT22;41205;44.264;19.884;2023-06-19T07:05:12;1306.20;921.60
55329;DHT22;41205;44.264;19.884;2023-06-19T07:07:37;1306.20;896.00
55329;DHT22;41205;44.264;19.884;2023-06-19T07:10:03;1331.60;870.40
55329;DHT22;41205;44.264;19.884;2023-06-19T07:12:29;1306.50;870.40
55329;DHT22;41205;44.264;19.884;2023-06-19T07:14:55;1331.70;870.40
55329;DHT22;41205;44.264;19.884;2023-06-19T07:17:22;1356.80;896.00
55329;DHT22;41205;44.264;19.884;2023-06-19T07:19:47;1331.40;896.00
55329;DHT22;41205;44.264;19.884;2023-06-19T07:22:13;1356.80;896.00
55329;DHT22;41205;44.264;19.884;2023-06-19T07:24:42;1356.80;844.80
55329;DHT22;41205;44.264;19.884;2023-06-19T07:27:08;1356.80;819.20
55329;DHT22;41205;44.264;19.884;2023-06-19T07:29:34;1356.90;819.20
55329;DHT22;41205;44.264;19.884;2023-06-19T07:32:00;1356.80;819.20
55329;DHT22;41205;44.264;19.884;2023-06-19T07:34:27;1357.40;768.00
55329;DHT22;41205;44.264;19.884;2023-06-19T07:36:53;1357.50;768.00
55329;DHT22;41205;44.264;19.884;2023-06-19T07:39:19;1357.40;768.00
55329;DHT22;41205;44.264;19.884;2023-06-19T07:41:44;1357.50;742.40
55329;DHT22;41205;44.264;19.884;2023-06-19T07:44:11;1357.50;742.40
55329;DHT22;41205;44.264;19.884;2023-06-19T07:46:37;1382.80;768.00
55329;DHT22;41205;44.264;19.884;2023-06-19T07:49:03;1382.90;793.60
55329;DHT22;41205;44.264;19.884;2023-06-19T07:51:28;1382.80;742.40
55329;DHT22;41205;44.264;19.884;2023-06-19T07:53:54;1382.60;768.00
55329;DHT22;41205;44.264;19.884;2023-06-19T07:56:20;1357.70;716.80
55329;DHT22;41205;44.264;19.884;2023-06-19T07:58:47;1382.80;742.40
55329;DHT22;41205;44.264;19.884;2023-06-19T08:01:12;1357.40;742.40
55329;DHT22;41205;44.264;19.884;2023-06-19T08:03:38;1331.60;768.00
55329;DHT22;41205;44.264;19.884;2023-06-19T08:06:04;1280.90;819.20
55329;DHT22;41205;44.264;19.884;2023-06-19T08:08:29;1280.20;844.80
55329;DHT22;41205;44.264;19.884;2023-06-19T08:10:55;1254.40;870.40
55329;DHT22;41205;44.264;19.884;2023-06-19T08:13:21;1203.40;896.00
55329;DHT22;41205;44.264;19.884;2023-06-19T08:15:46;1127.30;947.20
55329;DHT22;41205;44.264;19.884;2023-06-19T08:18:12;1076.10;972.80
55329;DHT22;41205;44.264;19.884;2023-06-19T08:20:38;1049.90;1024.00
55329;DHT22;41205;44.264;19.884;2023-06-19T08:23:03;1024.30;1049.60
55329;DHT22;41205;44.264;19.884;2023-06-19T08:25:29;998.80;1024.00
55329;DHT22;41205;44.264;19.884;2023-06-19T08:27:55;973.30;1024.00
55329;DHT22;41205;44.264;19.884;2023-06-19T08:30:20;973.10;1075.20
55329;DHT22;41205;44.264;19.884;2023-06-19T08:32:46;947.60;1075.20
55329;DHT22;41205;44.264;19.884;2023-06-19T08:35:14;947.50;1100.80
55329;DHT22;41205;44.264;19.884;2023-06-19T08:37:40;947.50;1075.20
55329;DHT22;41205;44.264;19.884;2023-06-19T08:40:06;922.50;1075.20
55329;DHT22;41205;44.264;19.884;2023-06-19T08:42:35;922.50;1100.80
55329;DHT22;41205;44.264;19.884;2023-06-19T08:45:01;922.40;1100.80
55329;DHT22;41205;44.264;19.884;2023-06-19T08:47:31;922.10;1100.80
55329;DHT22;41205;44.264;19.884;2023-06-19T08:49:58;922.00;1100.80
55329;DHT22;41205;44.264;19.884;2023-06-19T08:52:24;921.80;1100.80
55329;DHT22;41205;44.264;19.884;2023-06-19T08:54:50;921.80;1126.40
55329;DHT22;41205;44.264;19.884;2023-06-19T08:57:15;896.80;1126.40
55329;DHT22;41205;44.264;19.884;2023-06-19T08:59:48;896.20;1126.40
55329;DHT22;41205;44.264;19.884;2023-06-19T09:02:15;871.30;1075.20
55329;DHT22;41205;44.264;19.884;2023-06-19T09:04:40;896.00;1126.40
55329;DHT22;41205;44.264;19.884;2023-06-19T09:07:08;896.20;1100.80
55329;DHT22;41205;44.264;19.884;2023-06-19T09:09:33;871.30;1126.40
55329;DHT22;41205;44.264;19.884;2023-06-19T09:17:06;871.00;1126.40
55329;DHT22;41205;44.264;19.884;2023-06-19T09:19:33;871.10;1152.00
55329;DHT22;41205;44.264;19.884;2023-06-19T09:22:05;871.10;1126.40
55329;DHT22;41205;44.264;19.884;2023-06-19T09:24:40;870.70;1228.80
55329;DHT22;41205;44.264;19.884;2023-06-19T09:29:35;870.80;1100.80
55329;DHT22;41205;44.264;19.884;2023-06-19T09:32:01;870.50;1075.20
55329;DHT22;41205;44.264;19.884;2023-06-19T09:34:27;845.70;1126.40
55329;DHT22;41205;44.264;19.884;2023-06-19T09:36:52;845.70;1152.00
55329;DHT22;41205;44.264;19.884;2023-06-19T09:39:19;870.40;1126.40
55329;DHT22;41205;44.264;19.884;2023-06-19T09:41:46;870.40;1228.80
55329;DHT22;41205;44.264;19.884;2023-06-19T09:44:16;845.50;1228.80
55329;DHT22;41205;44.264;19.884;2023-06-19T09:46:44;845.40;1203.20
55329;DHT22;41205;44.264;19.884;2023-06-19T09:49:12;845.50;1203.20
55329;DHT22;41205;44.264;19.884;2023-06-19T09:51:41;845.50;1203.20
55329;DHT22;41205;44.264;19.884;2023-06-19T09:54:09;845.30;1203.20
55329;DHT22;41205;44.264;19.884;2023-06-19T09:56:35;845.30;1254.40
55329;DHT22;41205;44.264;19.884;2023-06-19T09:59:04;845.30;1254.40
55329;DHT22;41205;44.264;19.884;2023-06-19T10:01:31;845.20;1305.60
55329;DHT22;41205;44.264;19.884;2023-06-19T10:04:08;845.20;1203.20
55329;DHT22;41205;44.264;19.884;2023-06-19T10:06:45;845.20;1254.40
55329;DHT22;41205;44.264;19.884;2023-06-19T10:09:13;845.10;1280.00
55329;DHT22;41205;44.264;19.884;2023-06-19T10:11:52;844.90;1203.20
55329;DHT22;41205;44.264;19.884;2023-06-19T10:14:19;820.10;1203.20
55329;DHT22;41205;44.264;19.884;2023-06-19T10:16:45;820.10;1177.60
55329;DHT22;41205;44.264;19.884;2023-06-19T10:19:20;819.60;1177.60
55329;DHT22;41205;44.264;19.884;2023-06-19T10:21:53;819.70;1254.40
55329;DHT22;41205;44.264;19.884;2023-06-19T10:24:19;819.80;1280.00
55329;DHT22;41205;44.264;19.884;2023-06-19T10:27:02;819.80;1280.00
55329;DHT22;41205;44.264;19.884;2023-06-19T10:29:41;819.70;1356.80
55329;DHT22;41205;44.264;19.884;2023-06-19T10:32:06;819.70;1382.40
55329;DHT22;41205;44.264;19.884;2023-06-19T10:34:35;819.60;1331.20
55329;DHT22;41205;44.264;19.884;2023-06-19T10:37:01;819.80;1280.00
55329;DHT22;41205;44.264;19.884;2023-06-19T10:39:27;819.80;1305.60
55329;DHT22;41205;44.264;19.884;2023-06-19T10:41:53;819.80;1331.20
55329;DHT22;41205;44.264;19.884;2023-06-19T10:44:19;819.70;1331.20
55329;DHT22;41205;44.264;19.884;2023-06-19T10:46:48;819.50;1305.60
55329;DHT22;41205;44.264;19.884;2023-06-19T10:49:14;819.40;1305.60
55329;DHT22;41205;44.264;19.884;2023-06-19T10:51:41;819.20;1356.80
55329;DHT22;41205;44.264;19.884;2023-06-19T10:54:09;819.30;1305.60
55329;DHT22;41205;44.264;19.884;2023-06-19T10:56:35;794.50;1228.80
55329;DHT22;41205;44.264;19.884;2023-06-19T10:59:07;819.20;1228.80
55329;DHT22;41205;44.264;19.884;2023-06-19T11:01:41;819.30;1203.20
55329;DHT22;41205;44.264;19.884;2023-06-19T11:04:08;819.40;1356.80
55329;DHT22;41205;44.264;19.884;2023-06-19T11:06:35;819.40;1305.60
55329;DHT22;41205;44.264;19.884;2023-06-19T11:09:01;819.30;1331.20
55329;DHT22;41205;44.264;19.884;2023-06-19T11:11:44;819.30;1331.20
55329;DHT22;41205;44.264;19.884;2023-06-19T11:14:12;819.40;1305.60
55329;DHT22;41205;44.264;19.884;2023-06-19T11:16:39;819.50;1254.40
55329;DHT22;41205;44.264;19.884;2023-06-19T11:19:07;794.50;1280.00
55329;DHT22;41205;44.264;19.884;2023-06-19T11:21:35;819.20;1331.20
55329;DHT22;41205;44.264;19.884;2023-06-19T11:24:05;819.30;1280.00
55329;DHT22;41205;44.264;19.884;2023-06-19T11:26:39;819.20;1280.00
55329;DHT22;41205;44.264;19.884;2023-06-19T11:31:41;819.20;1356.80
55329;DHT22;41205;44.264;19.884;2023-06-19T11:34:06;794.40;1228.80
55329;DHT22;41205;44.264;19.884;2023-06-19T11:36:32;794.40;1305.60
55329;DHT22;41205;44.264;19.884;2023-06-19T11:38:58;794.40;1280.00
55329;DHT22;41205;44.264;19.884;2023-06-19T11:41:29;794.40;1280.00
55329;DHT22;41205;44.264;19.884;2023-06-19T11:43:59;794.50;1305.60
55329;DHT22;41205;44.264;19.884;2023-06-19T11:46:33;794.50;1382.40
55329;DHT22;41205;44.264;19.884;2023-06-19T11:49:15;819.20;1356.80
55329;DHT22;41205;44.264;19.884;2023-06-19T11:51:42;794.00;1305.60
55329;DHT22;41205;44.264;19.884;2023-06-19T11:54:09;794.00;1254.40
55329;DHT22;41205;44.264;19.884;2023-06-19T11:56:36;794.20;1280.00
55329;DHT22;41205;44.264;19.884;2023-06-19T11:59:02;794.30;1280.00
55329;DHT22;41205;44.264;19.884;2023-06-19T12:01:29;794.20;1280.00
55329;DHT22;41205;44.264;19.884;2023-06-19T12:03:55;794.40;1356.80
55329;DHT22;41205;44.264;19.884;2023-06-19T12:06:21;794.40;1408.00
55329;DHT22;41205;44.264;19.884;2023-06-19T12:08:47;794.20;1305.60
55329;DHT22;41205;44.264;19.884;2023-06-19T12:11:13;794.40;1331.20
55329;DHT22;41205;44.264;19.884;2023-06-19T12:13:40;794.40;1331.20
55329;DHT22;41205;44.264;19.884;2023-06-19T12:16:07;794.30;1382.40
55329;DHT22;41205;44.264;19.884;2023-06-19T12:18:33;793.70;1280.00
55329;DHT22;41205;44.264;19.884;2023-06-19T12:20:58;793.90;1280.00
55329;DHT22;41205;44.264;19.884;2023-06-19T12:23:24;794.00;1280.00
55329;DHT22;41205;44.264;19.884;2023-06-19T12:25:50;793.80;1280.00
55329;DHT22;41205;44.264;19.884;2023-06-19T12:28:15;794.00;1305.60
55329;DHT22;41205;44.264;19.884;2023-06-19T12:30:44;793.80;1280.00
55329;DHT22;41205;44.264;19.884;2023-06-19T12:33:11;793.80;1254.40
55329;DHT22;41205;44.264;19.884;2023-06-19T12:35:40;794.00;1305.60
55329;DHT22;41205;44.264;19.884;2023-06-19T12:38:10;794.20;1331.20
55329;DHT22;41205;44.264;19.884;2023-06-19T12:40:39;794.20;1356.80
55329;DHT22;41205;44.264;19.884;2023-06-19T12:43:05;794.20;1280.00
55329;DHT22;41205;44.264;19.884;2023-06-19T12:45:31;794.10;1280.00
55329;DHT22;41205;44.264;19.884;2023-06-19T12:47:57;794.00;1280.00
55329;DHT22;41205;44.264;19.884;2023-06-19T12:50:23;793.80;1280.00
55329;DHT22;41205;44.264;19.884;2023-06-19T12:52:50;794.00;1305.60
55329;DHT22;41205;44.264;19.884;2023-06-19T12:55:15;793.80;1280.00
55329;DHT22;41205;44.264;19.884;2023-06-19T12:57:41;793.90;1280.00
55329;DHT22;41205;44.264;19.884;2023-06-19T13:00:11;793.80;1280.00
55329;DHT22;41205;44.264;19.884;2023-06-19T13:02:38;794.00;1331.20
55329;DHT22;41205;44.264;19.884;2023-06-19T13:05:05;793.90;1280.00
55329;DHT22;41205;44.264;19.884;2023-06-19T13:07:31;794.00;1305.60
55329;DHT22;41205;44.264;19.884;2023-06-19T13:09:57;794.00;1254.40
55329;DHT22;41205;44.264;19.884;2023-06-19T13:12:23;793.90;1228.80
55329;DHT22;41205;44.264;19.884;2023-06-19T13:14:48;793.70;1254.40
55329;DHT22;41205;44.264;19.884;2023-06-19T13:17:14;793.90;1305.60
55329;DHT22;41205;44.264;19.884;2023-06-19T13:19:40;793.90;1331.20
55329;DHT22;41205;44.264;19.884;2023-06-19T13:22:06;794.00;1382.40
55329;DHT22;41205;44.264;19.884;2023-06-19T13:24:32;793.80;1254.40
55329;DHT22;41205;44.264;19.884;2023-06-19T13:26:57;794.00;1280.00
55329;DHT22;41205;44.264;19.884;2023-06-19T13:29:23;794.00;1280.00
55329;DHT22;41205;44.264;19.884;2023-06-19T13:31:49;794.00;1280.00
55329;DHT22;41205;44.264;19.884;2023-06-19T13:34:15;793.90;1305.60
55329;DHT22;41205;44.264;19.884;2023-06-19T13:36:41;793.90;1254.40
55329;DHT22;41205;44.264;19.884;2023-06-19T13:39:07;793.90;1331.20
55329;DHT22;41205;44.264;19.884;2023-06-19T13:41:33;793.70;1254.40
55329;DHT22;41205;44.264;19.884;2023-06-19T13:44:00;793.60;1305.60
55329;DHT22;41205;44.264;19.884;2023-06-19T13:46:25;793.80;1331.20
55329;DHT22;41205;44.264;19.884;2023-06-19T13:48:51;793.70;1305.60
55329;DHT22;41205;44.264;19.884;2023-06-19T13:51:18;793.60;1331.20
55329;DHT22;41205;44.264;19.884;2023-06-19T13:53:44;768.90;1254.40
55329;DHT22;41205;44.264;19.884;2023-06-19T13:56:10;768.60;1254.40
55329;DHT22;41205;44.264;19.884;2023-06-19T13:58:37;768.60;1305.60
55329;DHT22;41205;44.264;19.884;2023-06-19T14:01:03;768.60;1331.20
55329;DHT22;41205;44.264;19.884;2023-06-19T14:03:29;768.60;1305.60
55329;DHT22;41205;44.264;19.884;2023-06-19T14:05:54;768.50;1331.20
55329;DHT22;41205;44.264;19.884;2023-06-19T14:08:20;768.60;1356.80
55329;DHT22;41205;44.264;19.884;2023-06-19T14:10:46;768.40;1331.20
55329;DHT22;41205;44.264;19.884;2023-06-19T14:13:12;768.50;1331.20
55329;DHT22;41205;44.264;19.884;2023-06-19T14:15:38;768.50;1331.20
55329;DHT22;41205;44.264;19.884;2023-06-19T14:18:03;768.50;1331.20
55329;DHT22;41205;44.264;19.884;2023-06-19T14:20:29;768.60;1356.80
55329;DHT22;41205;44.264;19.884;2023-06-19T14:22:55;768.60;1331.20
55329;DHT22;41205;44.264;19.884;2023-06-19T14:25:20;768.70;1331.20
55329;DHT22;41205;44.264;19.884;2023-06-19T14:27:46;768.90;1382.40
55329;DHT22;41205;44.264;19.884;2023-06-19T14:30:12;768.90;1356.80
55329;DHT22;41205;44.264;19.884;2023-06-19T14:32:38;768.90;1331.20
55329;DHT22;41205;44.264;19.884;2023-06-19T14:35:04;768.80;1305.60
55329;DHT22;41205;44.264;19.884;2023-06-19T14:37:30;768.70;1305.60
55329;DHT22;41205;44.264;19.884;2023-06-19T14:39:56;768.60;1305.60
55329;DHT22;41205;44.264;19.884;2023-06-19T14:42:22;768.50;1305.60
55329;DHT22;41205;44.264;19.884;2023-06-19T14:44:48;768.40;1280.00
55329;DHT22;41205;44.264;19.884;2023-06-19T14:47:14;768.50;1305.60
55329;DHT22;41205;44.264;19.884;2023-06-19T14:49:39;768.50;1331.20
55329;DHT22;41205;44.264;19.884;2023-06-19T14:52:06;768.40;1305.60
55329;DHT22;41205;44.264;19.884;2023-06-19T14:54:31;768.40;1305.60
55329;DHT22;41205;44.264;19.884;2023-06-19T14:56:57;768.40;1280.00
55329;DHT22;41205;44.264;19.884;2023-06-19T14:59:23;768.40;1280.00
55329;DHT22;41205;44.264;19.884;2023-06-19T15:01:49;768.40;1331.20
55329;DHT22;41205;44.264;19.884;2023-06-19T15:04:17;768.30;1305.60
55329;DHT22;41205;44.264;19.884;2023-06-19T15:06:43;768.40;1305.60
55329;DHT22;41205;44.264;19.884;2023-06-19T15:09:09;768.30;1305.60
55329;DHT22;41205;44.264;19.884;2023-06-19T15:11:35;768.40;1305.60
55329;DHT22;41205;44.264;19.884;2023-06-19T15:14:01;768.40;1331.20
55329;DHT22;41205;44.264;19.884;2023-06-19T15:16:27;768.30;1331.20
55329;DHT22;41205;44.264;19.884;2023-06-19T15:18:53;768.10;1280.00
55329;DHT22;41205;44.264;19.884;2023-06-19T15:21:19;768.10;1305.60
55329;DHT22;41205;44.264;19.884;2023-06-19T15:23:44;768.10;1305.60
55329;DHT22;41205;44.264;19.884;2023-06-19T15:26:10;768.10;1331.20
55329;DHT22;41205;44.264;19.884;2023-06-19T15:28:36;768.10;1331.20
55329;DHT22;41205;44.264;19.884;2023-06-19T15:31:02;768.10;1331.20
55329;DHT22;41205;44.264;19.884;2023-06-19T15:33:28;768.10;1331.20
55329;DHT22;41205;44.264;19.884;2023-06-19T15:35:54;768.00;1331.20
55329;DHT22;41205;44.264;19.884;2023-06-19T15:38:20;768.00;1331.20
55329;DHT22;41205;44.264;19.884;2023-06-19T15:40:46;768.00;1356.80
55329;DHT22;41205;44.264;19.884;2023-06-19T15:43:12;768.00;1382.40
55329;DHT22;41205;44.264;19.884;2023-06-19T15:45:39;743.30;1382.40
55329;DHT22;41205;44.264;19.884;2023-06-19T15:48:05;743.30;1382.40
55329;DHT22;41205;44.264;19.884;2023-06-19T15:50:31;743.30;1382.40
55329;DHT22;41205;44.264;19.884;2023-06-19T15:52:58;743.30;1382.40
55329;DHT22;41205;44.264;19.884;2023-06-19T15:55:24;743.30;1356.80
55329;DHT22;41205;44.264;19.884;2023-06-19T15:57:52;743.20;1382.40
55329;DHT22;41205;44.264;19.884;2023-06-19T16:00:17;743.30;1408.00
55329;DHT22;41205;44.264;19.884;2023-06-19T16:02:43;743.20;1382.40
55329;DHT22;41205;44.264;19.884;2023-06-19T16:05:12;743.20;1356.80
55329;DHT22;41205;44.264;19.884;2023-06-19T16:07:37;743.00;1382.40
55329;DHT22;41205;44.264;19.884;2023-06-19T16:10:04;743.00;1382.40
55329;DHT22;41205;44.264;19.884;2023-06-19T16:12:30;743.00;1408.00
55329;DHT22;41205;44.264;19.884;2023-06-19T16:14:56;743.00;1408.00
55329;DHT22;41205;44.264;19.884;2023-06-19T16:17:22;743.00;1408.00
55329;DHT22;41205;44.264;19.884;2023-06-19T16:19:47;743.00;1408.00
55329;DHT22;41205;44.264;19.884;2023-06-19T16:22:13;743.00;1408.00
55329;DHT22;41205;44.264;19.884;2023-06-19T16:24:39;743.00;1408.00
55329;DHT22;41205;44.264;19.884;2023-06-19T16:27:05;742.90;1408.00
55329;DHT22;41205;44.264;19.884;2023-06-19T16:29:31;742.90;1408.00
55329;DHT22;41205;44.264;19.884;2023-06-19T16:31:57;742.90;1408.00
55329;DHT22;41205;44.264;19.884;2023-06-19T16:34:24;742.90;1408.00
55329;DHT22;41205;44.264;19.884;2023-06-19T16:36:50;742.80;1433.60
55329;DHT22;41205;44.264;19.884;2023-06-19T16:39:16;742.80;1408.00
55329;DHT22;41205;44.264;19.884;2023-06-19T16:41:46;742.80;1433.60
55329;DHT22;41205;44.264;19.884;2023-06-19T16:44:12;742.80;1408.00
55329;DHT22;41205;44.264;19.884;2023-06-19T16:46:38;742.80;1433.60
55329;DHT22;41205;44.264;19.884;2023-06-19T16:49:04;742.70;1408.00
55329;DHT22;41205;44.264;19.884;2023-06-19T16:51:30;742.60;1433.60
55329;DHT22;41205;44.264;19.884;2023-06-19T16:53:56;742.60;1433.60
55329;DHT22;41205;44.264;19.884;2023-06-19T16:56:21;742.60;1433.60
55329;DHT22;41205;44.264;19.884;2023-06-19T16:58:47;742.40;1484.80
55329;DHT22;41205;44.264;19.884;2023-06-19T17:01:13;742.40;1484.80
55329;DHT22;41205;44.264;19.884;2023-06-19T17:03:39;742.40;1510.40
55329;DHT22;41205;44.264;19.884;2023-06-19T17:06:05;742.40;1536.00
55329;DHT22;41205;44.264;19.884;2023-06-19T17:08:31;742.40;1536.00
55329;DHT22;41205;44.264;19.884;2023-06-19T17:10:56;742.40;1536.00
55329;DHT22;41205;44.264;19.884;2023-06-19T17:13:22;717.70;1536.00
55329;DHT22;41205;44.264;19.884;2023-06-19T17:15:48;717.70;1561.60
55329;DHT22;41205;44.264;19.884;2023-06-19T17:18:14;717.50;1561.60
55329;DHT22;41205;44.264;19.884;2023-06-19T17:20:41;717.50;1561.60
55329;DHT22;41205;44.264;19.884;2023-06-19T17:23:06;717.40;1561.60
55329;DHT22;41205;44.264;19.884;2023-06-19T17:25:32;717.40;1587.20
55329;DHT22;41205;44.264;19.884;2023-06-19T17:27:58;717.40;1612.80
55329;DHT22;41205;44.264;19.884;2023-06-19T17:30:24;717.30;1612.80
55329;DHT22;41205;44.264;19.884;2023-06-19T17:32:50;717.30;1638.40
55329;DHT22;41205;44.264;19.884;2023-06-19T17:35:16;717.10;1664.00
55329;DHT22;41205;44.264;19.884;2023-06-19T17:37:42;717.10;1664.00
55329;DHT22;41205;44.264;19.884;2023-06-19T17:40:10;716.90;1689.60
55329;DHT22;41205;44.264;19.884;2023-06-19T17:42:39;716.90;1715.20
55329;DHT22;41205;44.264;19.884;2023-06-19T17:45:05;716.80;1715.20
55329;DHT22;41205;44.264;19.884;2023-06-19T17:47:31;692.10;1740.80
55329;DHT22;41205;44.264;19.884;2023-06-19T17:49:57;692.00;1740.80
55329;DHT22;41205;44.264;19.884;2023-06-19T17:52:23;691.90;1740.80
55329;DHT22;41205;44.264;19.884;2023-06-19T17:54:48;691.80;1766.40
55329;DHT22;41205;44.264;19.884;2023-06-19T17:57:19;691.60;1766.40
55329;DHT22;41205;44.264;19.884;2023-06-19T17:59:46;691.60;1792.00
55329;DHT22;41205;44.264;19.884;2023-06-19T18:02:11;691.50;1817.60
55329;DHT22;41205;44.264;19.884;2023-06-19T18:04:37;691.30;1817.60
55329;DHT22;41205;44.264;19.884;2023-06-19T18:07:03;691.20;1817.60
55329;DHT22;41205;44.264;19.884;2023-06-19T18:09:29;666.50;1817.60
55329;DHT22;41205;44.264;19.884;2023-06-19T18:11:55;666.20;1817.60
55329;DHT22;41205;44.264;19.884;2023-06-19T18:14:21;666.00;1843.20
55329;DHT22;41205;44.264;19.884;2023-06-19T18:16:51;665.90;1843.20
55329;DHT22;41205;44.264;19.884;2023-06-19T18:19:16;640.90;1868.80
55329;DHT22;41205;44.264;19.884;2023-06-19T18:21:42;640.60;1920.00
55329;DHT22;41205;44.264;19.884;2023-06-19T18:24:08;640.40;1920.00
55329;DHT22;41205;44.264;19.884;2023-06-19T18:26:34;640.40;1945.60
55329;DHT22;41205;44.264;19.884;2023-06-19T18:28:59;640.40;1920.00
55329;DHT22;41205;44.264;19.884;2023-06-19T18:33:51;640.40;1945.60
55329;DHT22;41205;44.264;19.884;2023-06-19T18:36:18;640.10;1971.20
55329;DHT22;41205;44.264;19.884;2023-06-19T18:38:44;615.30;1971.20
55329;DHT22;41205;44.264;19.884;2023-06-19T18:41:10;615.30;1996.80
55329;DHT22;41205;44.264;19.884;2023-06-19T18:43:36;615.20;1996.80
55329;DHT22;41205;44.264;19.884;2023-06-19T18:46:01;615.20;1996.80
55329;DHT22;41205;44.264;19.884;2023-06-19T18:48:27;615.10;1996.80
55329;DHT22;41205;44.264;19.884;2023-06-19T18:50:53;615.10;1971.20
55329;DHT22;41205;44.264;19.884;2023-06-19T18:53:19;615.10;1971.20
55329;DHT22;41205;44.264;19.884;2023-06-19T18:55:45;615.00;1996.80
55329;DHT22;41205;44.264;19.884;2023-06-19T18:58:10;615.00;1996.80
55329;DHT22;41205;44.264;19.884;2023-06-19T19:00:36;614.90;2022.40
55329;DHT22;41205;44.264;19.884;2023-06-19T19:03:02;614.80;2022.40